Terminal Aerodrome Forecast
Issued by NWS

Home | Current Version | Previous Version | Text Only | Print | Product List | Glossary On
Versions: 1 2 3 4 5 6 7 8 9 10 11 12 13 14
000
FTUS43 KGLD 231720
TAFMCK
TAF
KMCK 231720Z 2318/2418 33025G35KT P6SM FEW110
     FM240300 32014KT P6SM SKC
     FM240900 31017G24KT P6SM SKC WS020/33040KT
     FM241500 33023G33KT P6SM SKC=

USA.gov is the U.S. government's official web portal to all federal, state and local government web resources and services.